Time;durP1;ratioP1;P1;durP2;ratioP2;P2;SDS_P1;SDS_P2;PMS_P1;PMS_P2;Temp;Humidity;BMP_temperature;BMP_pressure;BME280_temperature;BME280_humidity;BME280_pressure;Samples;Min_cycle;Max_cycle;Signal;HPM_P1;HPM_P2
2023/03/25 00:01:37;;;;;;;3.03;2.00;;;;;;;3.72;100.00;98150.16;10462787;28;20052;-78
2023/03/25 00:06:40;;;;;;;3.20;1.75;;;;;;;3.82;100.00;98132.91;10459141;28;20052;-79
2023/03/25 00:11:42;;;;;;;3.75;1.70;;;;;;;3.90;100.00;98103.16;10438596;28;20447;-78
2023/03/25 00:16:47;;;;;;;3.10;1.67;;;;;;;3.91;100.00;98131.91;10425982;28;20041;-78
2023/03/25 00:21:50;;;;;;;3.22;1.83;;;;;;;3.93;100.00;98082.78;10453873;28;20047;-78
2023/03/25 00:26:53;;;;;;;3.90;1.88;;;;;;;4.02;100.00;98108.13;10461590;28;20045;-78
2023/03/25 00:31:55;;;;;;;3.22;2.00;;;;;;;4.05;100.00;98093.94;10420794;28;20041;-78
2023/03/25 00:36:57;;;;;;;3.35;1.77;;;;;;;4.20;100.00;98090.13;10461302;28;20040;-78
2023/03/25 00:42:01;;;;;;;1.95;1.40;;;;;;;4.25;100.00;98084.59;10449823;28;20042;-78
2023/03/25 00:47:03;;;;;;;3.38;1.00;;;;;;;4.49;100.00;98092.50;10455742;28;20049;-78
2023/03/25 00:52:06;;;;;;;1.60;1.15;;;;;;;4.59;100.00;98075.22;10420939;28;20046;-79
2023/03/25 00:57:08;;;;;;;0.95;0.88;;;;;;;4.71;100.00;98051.03;10439935;28;20060;-79
2023/03/25 01:02:10;;;;;;;1.70;0.98;;;;;;;4.78;100.00;98054.13;10438319;28;20405;-79
2023/03/25 01:07:14;;;;;;;2.33;1.10;;;;;;;4.85;100.00;98049.06;10451053;28;20049;-79
2023/03/25 01:12:18;;;;;;;2.38;0.93;;;;;;;4.93;100.00;98055.69;10463980;28;20080;-79
2023/03/25 01:17:21;;;;;;;0.77;0.77;;;;;;;5.05;100.00;98050.53;10459567;28;20408;-79
2023/03/25 01:22:23;;;;;;;0.75;0.73;;;;;;;5.10;100.00;98042.25;10440552;28;20041;-79
2023/03/25 01:27:26;;;;;;;1.92;0.80;;;;;;;5.15;100.00;98040.19;10477313;28;20135;-79
2023/03/25 01:32:28;;;;;;;1.58;0.73;;;;;;;5.19;100.00;98034.94;10434676;28;20046;-79
2023/03/25 01:37:32;;;;;;;1.63;0.80;;;;;;;5.26;100.00;98037.25;10436806;28;20423;-79
2023/03/25 01:42:35;;;;;;;1.05;0.75;;;;;;;5.28;100.00;98049.41;10464617;28;20052;-77
2023/03/25 01:47:37;;;;;;;0.77;0.70;;;;;;;5.33;100.00;98060.16;10419084;28;20060;-79
2023/03/25 01:52:45;;;;;;;1.55;0.93;;;;;;;5.41;100.00;98058.63;10472753;28;20489;-79
2023/03/25 01:57:47;;;;;;;1.05;0.80;;;;;;;5.51;100.00;98060.25;10452578;28;20406;-79
2023/03/25 02:02:51;;;;;;;1.73;1.00;;;;;;;5.55;100.00;98059.31;10462534;28;20502;-79
2023/03/25 02:07:53;;;;;;;1.08;0.90;;;;;;;5.60;100.00;98056.50;10469507;28;20504;-78
2023/03/25 02:12:55;;;;;;;0.25;0.25;;;;;;;5.60;100.00;98045.59;10458339;28;20514;-78
2023/03/25 02:18:00;;;;;;;1.92;1.20;;;;;;;5.62;100.00;98053.44;10465922;28;20045;-79
2023/03/25 02:23:40;;;;;;;1.63;1.20;;;;;;;5.62;100.00;98059.69;10454396;28;20042;-79
2023/03/25 02:28:52;;;;;;;1.42;1.30;;;;;;;5.60;100.00;98059.22;10445941;28;20048;-79
2023/03/25 02:34:13;;;;;;;1.90;1.70;;;;;;;5.54;100.00;98065.88;10412169;28;20044;-80
2023/03/25 02:39:41;;;;;;;1.63;1.30;;;;;;;5.55;100.00;98074.84;10413826;28;20056;-79
2023/03/25 02:44:55;;;;;;;;;;;;;;;5.49;100.00;98076.91;10414883;28;20050;-79
2023/03/25 02:50:03;;;;;;;1.83;1.58;;;;;;;5.52;100.00;98078.19;10388416;28;19925;-78
2023/03/25 02:55:09;;;;;;;1.67;1.45;;;;;;;5.54;100.00;98079.47;10437049;28;20042;-79
2023/03/25 03:00:14;;;;;;;1.60;1.50;;;;;;;5.57;100.00;98078.88;10428610;28;20049;-79
2023/03/25 03:05:23;;;;;;;1.40;1.30;;;;;;;5.61;100.00;98071.69;10435449;28;20036;-78
2023/03/25 03:10:34;;;;;;;1.67;1.25;;;;;;;5.63;100.00;98080.34;10463850;28;20049;-78
2023/03/25 03:16:01;;;;;;;1.30;1.20;;;;;;;5.61;100.00;98066.25;10461080;28;20431;-79
2023/03/25 03:21:25;;;;;;;1.30;1.20;;;;;;;5.59;100.00;98078.56;10445006;28;20058;-79
2023/03/25 03:26:37;;;;;;;1.50;1.20;;;;;;;5.54;100.00;98079.47;10442650;28;20512;-78
2023/03/25 03:31:59;;;;;;;1.48;1.27;;;;;;;5.52;100.00;98072.75;10469774;28;20052;-80
2023/03/25 03:37:02;;;;;;;1.52;0.73;;;;;;;5.44;99.34;98071.59;10460773;28;20067;-78
2023/03/25 03:42:22;;;;;;;1.75;1.15;;;;;;;5.40;99.11;98078.78;10424392;28;20025;-79
2023/03/25 03:47:31;;;;;;;1.30;0.90;;;;;;;5.39;97.91;98082.59;10438983;28;20390;-79
2023/03/25 03:52:40;;;;;;;1.10;1.00;;;;;;;5.38;96.94;98089.97;10436684;28;20065;-79
2023/03/25 03:57:46;;;;;;;1.48;1.05;;;;;;;5.40;97.08;98086.94;10427583;28;20041;-78
2023/03/25 04:02:51;;;;;;;1.20;0.90;;;;;;;5.52;95.99;98087.16;10431018;28;20528;-78
2023/03/25 04:07:58;;;;;;;0.70;0.70;;;;;;;5.58;94.55;98083.19;10441975;28;20425;-78
2023/03/25 04:13:03;;;;;;;1.40;1.13;;;;;;;5.53;94.26;98088.75;10424158;28;20382;-79
2023/03/25 04:18:05;;;;;;;1.40;1.30;;;;;;;5.46;94.29;98093.84;10428757;28;20413;-78
2023/03/25 04:23:08;;;;;;;1.95;1.20;;;;;;;5.39;94.85;98093.47;10450755;28;20385;-78
2023/03/25 04:28:12;;;;;;;1.88;1.38;;;;;;;5.32;94.80;98090.38;10425966;28;20044;-79
2023/03/25 04:33:14;;;;;;;1.10;1.00;;;;;;;5.30;94.65;98098.03;10457219;28;20044;-78
2023/03/25 04:38:18;;;;;;;1.38;1.13;;;;;;;5.30;94.87;98089.88;10451605;28;20205;-79
2023/03/25 04:43:20;;;;;;;1.50;1.17;;;;;;;5.28;94.96;98070.34;10448573;28;20048;-78
2023/03/25 04:48:29;;;;;;;1.83;1.00;;;;;;;5.24;94.99;98077.53;10459100;28;20487;-79
2023/03/25 04:53:31;;;;;;;1.55;1.05;;;;;;;5.29;94.95;98077.41;10446236;28;20045;-79
2023/03/25 04:58:35;;;;;;;1.10;0.90;;;;;;;5.31;94.62;98086.84;10448251;28;20037;-79
2023/03/25 05:03:38;;;;;;;4.35;1.20;;;;;;;5.23;94.23;98076.72;10443812;28;20049;-79
2023/03/25 05:08:41;;;;;;;1.27;0.80;;;;;;;5.27;94.34;98083.16;10439239;28;20057;-79
2023/03/25 05:13:44;;;;;;;3.13;1.23;;;;;;;5.29;94.15;98071.97;10442811;28;20045;-79
2023/03/25 05:18:46;;;;;;;4.28;1.30;;;;;;;5.34;94.38;98078.06;10438580;28;20449;-79
2023/03/25 05:23:49;;;;;;;2.17;0.70;;;;;;;5.36;93.41;98084.00;10441810;28;20060;-79
2023/03/25 05:28:55;;;;;;;1.85;1.00;;;;;;;5.35;93.39;98076.16;10439041;28;20304;-79
2023/03/25 05:33:57;;;;;;;2.30;1.00;;;;;;;5.41;93.26;98074.94;10430812;28;20041;-78
2023/03/25 05:39:00;;;;;;;3.42;1.45;;;;;;;5.47;92.75;98070.16;10436296;28;20037;-79
2023/03/25 05:44:05;;;;;;;4.10;1.27;;;;;;;5.47;92.43;98073.69;10441648;28;20041;-78
2023/03/25 05:49:07;;;;;;;3.35;1.20;;;;;;;5.47;92.12;98068.25;10432454;28;20417;-78
2023/03/25 05:54:12;;;;;;;1.13;1.02;;;;;;;5.47;91.64;98062.81;10422329;28;20049;-79
2023/03/25 05:59:15;;;;;;;3.30;1.15;;;;;;;5.47;91.86;98083.75;10423886;28;20041;-80
2023/03/25 06:04:17;;;;;;;2.28;1.20;;;;;;;5.44;92.05;98074.31;10433025;28;20453;-81
2023/03/25 06:09:20;;;;;;;2.85;1.10;;;;;;;5.49;91.93;98065.22;10422029;28;20045;-78
2023/03/25 06:14:24;;;;;;;3.78;1.20;;;;;;;5.47;92.27;98054.66;10428412;28;20041;-78
2023/03/25 06:19:26;;;;;;;3.45;1.05;;;;;;;5.52;91.81;98062.66;10428805;28;20048;-78
2023/03/25 06:24:28;;;;;;;3.38;1.42;;;;;;;5.54;91.25;98057.72;10435956;28;20429;-77
2023/03/25 06:29:30;;;;;;;2.67;1.10;;;;;;;5.56;91.21;98054.72;10483345;28;20045;-77
2023/03/25 06:34:33;;;;;;;5.15;1.20;;;;;;;5.63;91.50;98046.91;10476101;28;20049;-77
2023/03/25 06:39:36;;;;;;;2.90;1.15;;;;;;;5.63;91.12;98044.97;10454347;28;20036;-77
2023/03/25 06:44:47;;;;;;;4.45;1.08;;;;;;;5.67;90.29;98047.88;10431548;28;20469;-78
2023/03/25 06:50:10;;;;;;;3.95;1.38;;;;;;;5.72;89.95;98036.84;10442611;28;20038;-77
2023/03/25 06:55:12;;;;;;;1.70;1.10;;;;;;;5.78;89.03;98026.66;10419448;28;20408;-77
2023/03/25 07:00:19;;;;;;;2.55;1.10;;;;;;;5.86;89.10;98014.97;10431903;28;20048;-76
2023/03/25 07:05:21;;;;;;;3.20;1.40;;;;;;;5.86;87.76;98010.34;10431426;28;20044;-78
2023/03/25 07:10:23;;;;;;;6.65;2.30;;;;;;;5.97;87.74;98000.81;10473607;28;20053;-77
2023/03/25 07:15:25;;;;;;;4.32;1.08;;;;;;;5.92;87.12;98000.16;10426444;28;20409;-78
2023/03/25 07:20:28;;;;;;;3.35;1.38;;;;;;;5.89;87.04;98000.75;10453330;28;20049;-78
2023/03/25 07:25:30;;;;;;;3.03;1.10;;;;;;;5.96;85.63;97984.81;10483003;28;20047;-78
2023/03/25 07:30:32;;;;;;;3.85;1.00;;;;;;;5.98;85.07;97968.97;10448796;28;20072;-78
2023/03/25 07:35:34;;;;;;;2.33;1.08;;;;;;;5.95;84.50;97975.84;10474158;28;20485;-78
2023/03/25 07:40:37;;;;;;;4.97;1.30;;;;;;;5.95;83.07;97972.31;10444878;28;20444;-78
2023/03/25 07:45:39;;;;;;;2.25;1.00;;;;;;;5.90;82.63;97961.56;10442999;28;20417;-78
2023/03/25 07:50:42;;;;;;;2.70;1.13;;;;;;;5.88;83.32;97944.72;10469766;28;20060;-78
2023/03/25 07:55:45;;;;;;;4.47;1.23;;;;;;;5.80;82.91;97945.50;10453087;28;20037;-79
2023/03/25 08:00:47;;;;;;;4.72;1.48;;;;;;;5.79;83.44;97941.97;10463914;28;20067;-78
2023/03/25 08:05:49;;;;;;;2.95;1.10;;;;;;;5.75;83.26;97933.66;10450518;28;20044;-77
2023/03/25 08:10:52;;;;;;;0.90;0.85;;;;;;;5.72;84.49;97928.81;10415607;28;20140;-78
2023/03/25 08:15:54;;;;;;;2.40;0.90;;;;;;;5.67;84.42;97942.56;10436877;28;20041;-78
2023/03/25 08:20:56;;;;;;;3.50;1.10;;;;;;;5.58;85.49;97958.06;10437692;28;20052;-77
2023/03/25 08:26:01;;;;;;;1.83;0.90;;;;;;;5.43;86.60;97953.84;10439339;28;20136;-77
2023/03/25 08:31:07;;;;;;;2.20;0.82;;;;;;;5.36;87.35;97969.00;10442231;28;20037;-77
2023/03/25 08:36:12;;;;;;;2.00;0.85;;;;;;;5.23;87.92;97964.47;10455779;28;20424;-78
2023/03/25 08:41:15;;;;;;;2.38;0.70;;;;;;;5.12;87.91;97958.47;10436379;28;20042;-78
2023/03/25 08:46:17;;;;;;;4.47;0.90;;;;;;;5.10;88.16;97966.13;10441760;28;20068;-78
2023/03/25 08:51:20;;;;;;;3.90;1.10;;;;;;;5.03;88.80;97969.31;10452385;28;20064;-79
2023/03/25 08:56:22;;;;;;;2.80;0.90;;;;;;;5.03;89.59;97968.47;10448519;28;20045;-78
2023/03/25 09:01:24;;;;;;;2.80;0.80;;;;;;;5.04;89.38;97968.19;10444970;28;20048;-78
2023/03/25 09:06:27;;;;;;;3.17;0.80;;;;;;;4.99;88.96;97962.88;10431263;28;20045;-78
2023/03/25 09:11:29;;;;;;;1.48;0.75;;;;;;;4.94;89.33;97979.31;10418375;28;20049;-78
2023/03/25 09:16:31;;;;;;;1.25;0.77;;;;;;;4.93;90.05;97994.00;10440881;28;20443;-77
2023/03/25 09:21:33;;;;;;;3.42;0.90;;;;;;;4.91;91.00;97995.44;10429585;28;20050;-77
2023/03/25 09:26:36;;;;;;;1.73;0.80;;;;;;;4.82;91.00;97995.34;10443309;28;20045;-79
2023/03/25 09:31:38;;;;;;;2.45;0.65;;;;;;;4.75;91.23;98009.38;10447009;28;20049;-78
2023/03/25 09:36:41;;;;;;;2.13;0.85;;;;;;;4.68;91.53;98049.72;10456892;28;20052;-78
2023/03/25 09:42:14;;;;;;;1.88;0.80;;;;;;;4.39;92.19;98066.38;10447800;28;20041;-77
2023/03/25 09:47:18;;;;;;;1.02;0.65;;;;;;;3.88;92.43;98069.31;10446011;28;20041;-77
2023/03/25 09:52:25;;;;;;;1.05;0.40;;;;;;;3.67;93.41;98082.44;10472796;28;20371;-78
2023/03/25 09:57:30;;;;;;;1.07;0.73;;;;;;;3.60;93.44;98082.81;10417143;28;20436;-78
2023/03/25 10:02:40;;;;;;;2.15;0.90;;;;;;;3.55;93.24;98103.81;10455817;28;20037;-78
2023/03/25 10:07:59;;;;;;;3.03;0.88;;;;;;;3.47;93.11;98124.28;10453677;28;20037;-79
2023/03/25 10:13:38;;;;;;;1.40;1.15;;;;;;;3.52;92.09;98120.66;10406561;28;20524;-78
2023/03/25 10:19:18;;;;;;;0.52;0.30;;;;;;;3.52;91.98;98134.22;10420300;28;20405;-78
2023/03/25 10:24:28;;;;;;;0.50;0.40;;;;;;;3.61;92.46;98141.38;10445115;28;20055;-78
2023/03/25 10:29:35;;;;;;;0.65;0.38;;;;;;;3.57;92.18;98147.69;10482031;28;20049;-77
2023/03/25 10:34:54;;;;;;;0.20;0.20;;;;;;;3.43;92.83;98173.94;10444590;28;20045;-79
2023/03/25 10:40:07;;;;;;;0.32;0.32;;;;;;;3.28;93.54;98183.91;10441701;28;20533;-79
2023/03/25 10:45:14;;;;;;;0.88;0.50;;;;;;;3.10;94.44;98198.25;10443157;28;20044;-77
2023/03/25 10:50:18;;;;;;;0.30;0.30;;;;;;;2.96;95.24;98202.81;10442784;28;20050;-78
2023/03/25 10:55:31;;;;;;;0.50;0.50;;;;;;;2.88;95.96;98211.56;10448165;28;20033;-78
2023/03/25 11:00:33;;;;;;;0.82;0.60;;;;;;;2.79;97.06;98224.16;10432095;28;20052;-78
2023/03/25 11:05:36;;;;;;;0.75;0.40;;;;;;;2.69;97.43;98242.13;10445952;28;20042;-78
2023/03/25 11:10:39;;;;;;;0.70;0.63;;;;;;;2.65;98.58;98262.75;10441569;28;20041;-78
2023/03/25 11:15:41;;;;;;;0.50;0.50;;;;;;;2.60;98.26;98257.41;10434975;28;20064;-78
2023/03/25 11:20:53;;;;;;;1.33;0.90;;;;;;;2.59;98.96;98272.00;10442870;28;20041;-78
2023/03/25 11:26:17;;;;;;;0.57;0.55;;;;;;;2.55;99.44;98300.75;10442688;28;20033;-78
2023/03/25 11:31:22;;;;;;;0.60;0.60;;;;;;;2.61;99.11;98305.03;10441733;28;20528;-78
2023/03/25 11:36:28;;;;;;;0.63;0.63;;;;;;;2.54;99.21;98323.50;10445177;28;20045;-78
2023/03/25 11:41:35;;;;;;;1.23;0.77;;;;;;;2.50;99.17;98330.56;10442471;28;20053;-78
2023/03/25 11:46:41;;;;;;;0.80;0.73;;;;;;;2.46;99.69;98353.91;10435064;28;20053;-78
2023/03/25 11:51:44;;;;;;;1.58;0.80;;;;;;;2.47;99.59;98368.25;10438081;28;20152;-78
2023/03/25 11:56:48;;;;;;;1.00;0.90;;;;;;;2.43;99.65;98403.19;10441676;28;20053;-78
2023/03/25 12:02:00;;;;;;;1.17;0.90;;;;;;;2.45;99.81;98409.13;10439410;28;20041;-78
2023/03/25 12:07:08;;;;;;;0.82;0.65;;;;;;;2.37;99.19;98423.25;10443612;28;20042;-78
2023/03/25 12:12:33;;;;;;;0.68;0.57;;;;;;;2.24;99.16;98449.03;10431706;28;20041;-78
2023/03/25 12:18:27;;;;;;;1.00;0.80;;;;;;;2.21;98.45;98459.59;10434291;28;20048;-81
2023/03/25 12:23:51;;;;;;;0.30;0.30;;;;;;;2.14;97.94;98475.34;10441606;28;20415;-78
2023/03/25 12:29:06;;;;;;;1.20;0.80;;;;;;;2.10;97.74;98494.84;10452119;28;20041;-79
2023/03/25 12:34:08;;;;;;;1.02;0.60;;;;;;;2.04;98.38;98505.97;10454129;28;20390;-77
2023/03/25 12:39:29;;;;;;;1.20;0.60;;;;;;;2.04;98.09;98525.69;10445003;28;20044;-80
2023/03/25 12:44:50;;;;;;;1.60;0.90;;;;;;;1.97;97.98;98538.72;10422416;28;20050;-79
2023/03/25 12:49:59;;;;;;;1.17;0.82;;;;;;;1.96;97.86;98558.75;10449397;28;20053;-78
2023/03/25 12:55:26;;;;;;;0.73;0.70;;;;;;;1.94;98.29;98574.44;10437082;28;20048;-81
2023/03/25 13:00:41;;;;;;;0.90;0.70;;;;;;;1.92;97.59;98584.72;10455056;28;20037;-77
2023/03/25 13:05:53;;;;;;;1.00;0.50;;;;;;;1.91;97.21;98598.50;10412106;28;20120;-76
2023/03/25 13:11:05;;;;;;;0.73;0.55;;;;;;;1.95;96.52;98619.34;10448655;28;20037;-77
2023/03/25 13:16:10;;;;;;;2.08;0.82;;;;;;;1.95;96.51;98627.44;10437198;28;20386;-76
2023/03/25 13:21:22;;;;;;;2.05;0.70;;;;;;;1.94;96.33;98633.94;10440900;28;20041;-76
2023/03/25 13:26:28;;;;;;;0.88;0.60;;;;;;;1.92;96.48;98662.34;10446325;28;20056;-77
2023/03/25 13:31:34;;;;;;;0.65;0.50;;;;;;;1.91;97.00;98675.06;10444087;28;20033;-77
2023/03/25 13:36:42;;;;;;;0.40;0.40;;;;;;;1.88;96.65;98686.41;10437379;28;20068;-82
2023/03/25 13:41:55;;;;;;;;;;;;;;;1.82;96.70;98695.63;10440212;28;20740;-80
2023/03/25 13:47:04;;;;;;;0.50;0.50;;;;;;;1.77;96.47;98709.97;10431583;28;19917;-79
2023/03/25 13:52:07;;;;;;;0.30;0.30;;;;;;;1.92;95.79;98729.97;10437292;28;20079;-78
2023/03/25 13:57:30;;;;;;;1.17;0.60;;;;;;;1.90;95.46;98751.03;10426350;28;20413;-79
2023/03/25 14:02:54;;;;;;;0.50;0.50;;;;;;;1.80;94.50;98770.78;10436956;28;20068;-80
2023/03/25 14:08:07;;;;;;;0.77;0.77;;;;;;;1.80;94.95;98778.91;10442163;28;20044;-80
2023/03/25 14:13:31;;;;;;;2.63;0.60;;;;;;;1.75;95.32;98790.53;10441153;28;20056;-77
2023/03/25 14:18:48;;;;;;;0.95;0.30;;;;;;;1.71;94.89;98816.47;10466801;28;20033;-81
2023/03/25 14:24:02;;;;;;;2.08;0.80;;;;;;;1.80;94.64;98825.69;10414378;28;20413;-82
2023/03/25 14:29:30;;;;;;;1.75;0.73;;;;;;;1.80;94.82;98841.91;10432454;28;20133;-79
2023/03/25 14:34:33;;;;;;;1.83;0.82;;;;;;;1.85;94.14;98848.41;10435618;28;20037;-82
2023/03/25 14:39:37;;;;;;;0.75;0.75;;;;;;;1.89;93.86;98854.91;10449509;28;20053;-84
2023/03/25 14:44:41;;;;;;;1.30;0.73;;;;;;;1.80;93.36;98876.25;10435799;28;20056;-82
2023/03/25 14:49:55;;;;;;;1.15;0.70;;;;;;;1.94;93.02;98881.97;10441614;28;20088;-80
2023/03/25 14:55:00;;;;;;;2.28;0.90;;;;;;;2.11;92.71;98882.53;10407117;28;20088;-79
2023/03/25 15:00:16;;;;;;;1.13;0.70;;;;;;;2.05;91.68;98891.72;10435338;28;20053;-82
2023/03/25 15:05:30;;;;;;;1.10;0.70;;;;;;;1.91;91.20;98891.44;10436532;28;20524;-78
2023/03/25 15:10:38;;;;;;;3.25;0.95;;;;;;;1.88;91.01;98907.38;10436553;28;20052;-80
2023/03/25 15:15:46;;;;;;;1.63;1.10;;;;;;;1.72;90.92;98920.03;10441367;28;20605;-81
2023/03/25 15:20:48;;;;;;;1.10;1.00;;;;;;;1.64;91.06;98925.97;10429010;28;20060;-84
2023/03/25 15:25:53;;;;;;;2.28;1.10;;;;;;;1.58;91.53;98935.94;10425713;28;20140;-84
2023/03/25 15:31:08;;;;;;;1.20;1.00;;;;;;;1.52;91.70;98958.59;10449306;28;20120;-84
2023/03/25 15:36:19;;;;;;;1.20;1.10;;;;;;;1.50;91.99;98956.16;10433042;28;20049;-88
2023/03/25 15:41:57;;;;;;;1.70;1.20;;;;;;;1.41;92.05;98963.16;10409953;28;20049;-84
2023/03/25 15:47:21;;;;;;;2.75;1.30;;;;;;;1.35;92.64;98987.69;10417275;28;20037;-86
2023/03/25 15:52:42;;;;;;;1.38;1.10;;;;;;;1.26;93.62;98997.38;10431701;28;20060;-82
2023/03/25 15:58:04;;;;;;;2.53;1.40;;;;;;;1.28;93.51;99024.97;10434444;28;20049;-83
2023/03/25 16:03:12;;;;;;;1.20;1.02;;;;;;;1.20;93.97;99031.66;10452422;28;20049;-83
2023/03/25 16:08:31;;;;;;;2.15;1.40;;;;;;;1.23;94.29;99055.47;10444828;28;20029;-81
2023/03/25 16:13:33;;;;;;;1.70;1.48;;;;;;;1.14;94.07;99057.81;10447550;28;20962;-84
2023/03/25 16:18:38;;;;;;;1.90;1.50;;;;;;;1.14;94.56;99067.81;10456164;28;20049;-82
2023/03/25 16:23:40;;;;;;;3.92;1.90;;;;;;;1.15;94.39;99074.84;10433791;28;20056;-81
2023/03/25 16:28:42;;;;;;;2.35;1.70;;;;;;;1.18;94.81;99093.22;10461603;28;20056;-78
2023/03/25 16:33:45;;;;;;;3.08;1.80;;;;;;;1.16;94.42;99101.59;10399575;28;20053;-80
2023/03/25 16:38:47;;;;;;;2.72;1.60;;;;;;;1.10;94.88;99112.63;10441805;28;20049;-80
2023/03/25 16:43:53;;;;;;;2.10;1.52;;;;;;;1.07;94.79;99118.53;10444642;28;20044;-80
2023/03/25 16:48:57;;;;;;;3.13;1.67;;;;;;;1.12;94.33;99137.50;10411242;28;20450;-83
2023/03/25 16:53:59;;;;;;;2.33;1.30;;;;;;;1.20;94.76;99150.53;10435857;28;20037;-81
2023/03/25 16:59:06;;;;;;;2.53;1.77;;;;;;;1.22;94.07;99161.91;10440318;28;20048;-81
2023/03/25 17:04:15;;;;;;;1.58;1.48;;;;;;;1.25;94.48;99174.91;10434446;28;20037;-81
2023/03/25 17:09:41;;;;;;;3.15;2.17;;;;;;;1.27;94.11;99183.56;10427244;28;20520;-80
2023/03/25 17:14:45;;;;;;;2.55;1.90;;;;;;;1.22;93.71;99191.63;10433993;28;20056;-79
2023/03/25 17:19:51;;;;;;;2.30;1.50;;;;;;;1.25;93.82;99196.53;10432259;28;20045;-80
2023/03/25 17:24:56;;;;;;;4.57;2.53;;;;;;;1.34;93.80;99203.06;10432853;28;20045;-80
2023/03/25 17:30:14;;;;;;;5.15;2.15;;;;;;;1.82;94.02;99209.44;10468246;28;20477;-79
2023/03/25 17:35:19;;;;;;;4.05;2.45;;;;;;;2.09;92.64;99225.59;10454895;28;20044;-79
2023/03/25 17:40:24;;;;;;;3.35;2.22;;;;;;;2.23;91.87;99228.66;10454466;28;20400;-80
2023/03/25 17:45:26;;;;;;;3.05;2.00;;;;;;;2.14;90.84;99230.22;10414071;28;20045;-79
2023/03/25 17:50:31;;;;;;;3.38;1.80;;;;;;;2.19;90.01;99233.78;10444208;28;20378;-83
2023/03/25 17:55:34;;;;;;;3.45;1.70;;;;;;;1.95;89.68;99235.25;10427407;28;20064;-81
2023/03/25 18:00:37;;;;;;;3.92;1.70;;;;;;;2.10;89.37;99233.47;10449131;28;20044;-84
2023/03/25 18:05:39;;;;;;;2.95;1.70;;;;;;;2.18;89.85;99231.34;10451008;28;20041;-81
2023/03/25 18:10:41;;;;;;;2.85;1.58;;;;;;;2.02;89.06;99225.81;10448441;28;20053;-81
2023/03/25 18:15:44;;;;;;;2.25;1.67;;;;;;;2.19;89.31;99232.97;10452099;28;20055;-81
2023/03/25 18:20:47;;;;;;;2.72;1.50;;;;;;;2.33;88.69;99247.66;10451442;28;20128;-82
2023/03/25 18:25:50;;;;;;;2.35;1.60;;;;;;;2.57;87.25;99251.59;10400571;28;20050;-82
2023/03/25 18:30:55;;;;;;;2.03;1.75;;;;;;;2.48;86.55;99252.38;10436555;28;20039;-83
2023/03/25 18:35:58;;;;;;;3.13;1.85;;;;;;;2.33;86.56;99256.59;10417604;28;20047;-79
2023/03/25 18:41:01;;;;;;;2.25;1.83;;;;;;;2.14;85.86;99255.41;10460573;28;20037;-79
2023/03/25 18:46:03;;;;;;;1.58;1.40;;;;;;;1.99;87.68;99245.28;10442071;28;20045;-79
2023/03/25 18:51:09;;;;;;;1.80;1.70;;;;;;;2.11;87.29;99243.22;10475911;28;20048;-80
2023/03/25 18:56:11;;;;;;;2.35;1.90;;;;;;;2.28;86.93;99250.34;10462788;28;20060;-79
2023/03/25 19:01:17;;;;;;;4.28;1.98;;;;;;;2.42;87.17;99251.50;10485746;28;20049;-81
2023/03/25 19:06:19;;;;;;;3.17;2.08;;;;;;;2.63;86.27;99261.41;10448031;28;20045;-80
2023/03/25 19:11:22;;;;;;;3.00;2.20;;;;;;;2.68;85.62;99256.00;10419454;28;20037;-80
2023/03/25 19:16:24;;;;;;;6.13;2.63;;;;;;;2.39;85.23;99262.84;10432528;28;20042;-80
2023/03/25 19:21:26;;;;;;;4.18;2.50;;;;;;;2.18;86.31;99258.41;10441867;28;20045;-79
2023/03/25 19:26:28;;;;;;;4.18;2.90;;;;;;;2.06;86.85;99258.56;10440390;28;20501;-79
2023/03/25 19:31:31;;;;;;;5.32;2.75;;;;;;;1.89;87.03;99258.72;10435056;28;20215;-80
2023/03/25 19:36:33;;;;;;;5.18;2.60;;;;;;;1.83;88.23;99248.94;10431317;28;20590;-81
2023/03/25 19:41:41;;;;;;;7.60;3.38;;;;;;;1.84;88.44;99252.44;10436107;28;20037;-82
2023/03/25 19:46:43;;;;;;;8.47;3.07;;;;;;;1.99;88.49;99252.56;10463808;28;20044;-78
2023/03/25 19:51:46;;;;;;;8.98;3.83;;;;;;;1.93;88.37;99249.03;10445472;28;20381;-80
2023/03/25 19:56:49;;;;;;;6.25;3.30;;;;;;;1.83;87.84;99246.22;10421058;28;20052;-80
2023/03/25 20:01:51;;;;;;;8.07;3.33;;;;;;;1.92;88.00;99238.47;10441384;28;20409;-81
2023/03/25 20:06:54;;;;;;;4.68;3.08;;;;;;;2.01;87.57;99243.13;10454738;28;20044;-81
2023/03/25 20:11:57;;;;;;;3.78;2.42;;;;;;;1.99;87.52;99239.88;10426567;28;20141;-84
2023/03/25 20:16:59;;;;;;;2.40;2.08;;;;;;;1.99;87.36;99234.44;10451431;28;20455;-82
2023/03/25 20:22:01;;;;;;;5.32;2.40;;;;;;;1.86;87.04;99237.59;10444256;28;20046;-81
2023/03/25 20:27:03;;;;;;;3.50;2.17;;;;;;;1.86;87.86;99225.97;10479136;28;20124;-80
2023/03/25 20:32:06;;;;;;;4.05;2.33;;;;;;;1.78;88.15;99238.09;10461851;28;20045;-80
2023/03/25 20:37:11;;;;;;;2.67;2.30;;;;;;;1.90;88.29;99232.47;10448278;28;20049;-79
2023/03/25 20:42:13;;;;;;;4.72;2.50;;;;;;;2.07;87.84;99235.84;10452730;28;20045;-79
2023/03/25 20:47:15;;;;;;;5.57;2.80;;;;;;;2.01;87.27;99218.78;10450597;28;20037;-80
2023/03/25 20:52:18;;;;;;;3.70;2.60;;;;;;;1.92;88.04;99244.69;10450291;28;20065;-79
2023/03/25 20:57:20;;;;;;;4.47;3.00;;;;;;;1.93;87.47;99257.16;10447305;28;20052;-80
2023/03/25 21:02:23;;;;;;;4.82;2.60;;;;;;;1.86;87.95;99259.22;10431244;28;20435;-80
2023/03/25 21:07:30;;;;;;;4.18;2.92;;;;;;;2.01;88.18;99263.94;10471702;28;20045;-80
2023/03/25 21:12:34;;;;;;;4.00;2.67;;;;;;;2.10;87.83;99268.63;10463901;28;20029;-80
2023/03/25 21:17:36;;;;;;;3.92;2.95;;;;;;;2.13;86.81;99269.19;10482990;28;20037;-80
2023/03/25 21:22:42;;;;;;;3.35;3.03;;;;;;;2.03;87.09;99262.63;10453244;28;20417;-81
2023/03/25 21:27:45;;;;;;;3.28;2.70;;;;;;;2.11;87.21;99259.44;10455358;28;20067;-82
2023/03/25 21:32:47;;;;;;;3.88;3.25;;;;;;;2.02;87.15;99258.28;10449246;28;20055;-81
2023/03/25 21:37:50;;;;;;;4.18;3.22;;;;;;;2.06;87.79;99256.69;10444714;28;20045;-80
2023/03/25 21:42:53;;;;;;;6.30;3.70;;;;;;;1.89;86.88;99247.06;10461575;28;20052;-81
2023/03/25 21:47:55;;;;;;;5.30;3.63;;;;;;;1.97;87.63;99247.44;10450048;28;20556;-81
2023/03/25 21:53:02;;;;;;;6.55;3.55;;;;;;;1.95;87.46;99244.16;10446907;28;20069;-80
2023/03/25 21:58:05;;;;;;;4.18;3.10;;;;;;;1.73;87.54;99240.72;10427750;28;20049;-79
2023/03/25 22:03:10;;;;;;;5.93;3.65;;;;;;;1.75;87.56;99246.72;10462887;28;20044;-79
2023/03/25 22:08:13;;;;;;;4.57;3.22;;;;;;;1.82;88.21;99241.91;10471997;28;20052;-80
2023/03/25 22:13:15;;;;;;;4.53;3.22;;;;;;;1.85;88.25;99238.66;10484564;28;20055;-79
2023/03/25 22:18:17;;;;;;;6.15;3.78;;;;;;;1.82;88.02;99225.66;10478874;28;20057;-79
2023/03/25 22:23:23;;;;;;;6.28;4.03;;;;;;;1.80;88.00;99225.13;10446425;28;20041;-79
2023/03/25 22:28:25;;;;;;;7.30;5.40;;;;;;;1.76;88.16;99213.19;10445837;28;20045;-79
2023/03/25 22:33:29;;;;;;;7.20;4.82;;;;;;;1.59;88.59;99218.72;10454891;28;20519;-80
2023/03/25 22:38:32;;;;;;;7.57;4.90;;;;;;;1.57;88.52;99215.47;10470158;28;20068;-79
2023/03/25 22:43:35;;;;;;;9.95;5.47;;;;;;;1.48;88.96;99208.88;10486960;28;20055;-79
2023/03/25 22:48:40;;;;;;;8.88;5.57;;;;;;;1.42;89.57;99212.63;10483475;28;20451;-79
2023/03/25 22:53:42;;;;;;;8.13;5.38;;;;;;;1.38;89.85;99203.38;10443524;28;20045;-78
2023/03/25 22:58:44;;;;;;;9.68;5.47;;;;;;;1.34;90.71;99200.38;10445877;28;20045;-78
2023/03/25 23:03:47;;;;;;;8.45;5.07;;;;;;;1.41;90.91;99208.28;10444191;28;20060;-77
2023/03/25 23:08:49;;;;;;;9.48;6.30;;;;;;;1.58;90.80;99198.16;10439413;28;20243;-79
2023/03/25 23:13:54;;;;;;;12.85;6.78;;;;;;;1.50;91.31;99188.63;10422727;28;20525;-79
2023/03/25 23:18:57;;;;;;;11.93;7.13;;;;;;;1.42;91.55;99191.81;10407091;28;20049;-79
2023/03/25 23:24:02;;;;;;;13.60;7.22;;;;;;;1.35;92.31;99196.59;10441118;28;20068;-80
2023/03/25 23:29:07;;;;;;;14.15;7.35;;;;;;;1.34;92.56;99189.56;10443811;28;20402;-79
2023/03/25 23:34:14;;;;;;;14.18;7.75;;;;;;;1.28;93.08;99182.50;10443771;28;20136;-79
2023/03/25 23:39:21;;;;;;;13.77;6.80;;;;;;;1.33;93.33;99176.31;10444562;28;20493;-79
2023/03/25 23:44:23;;;;;;;11.57;6.95;;;;;;;1.34;93.11;99173.34;10442647;28;20037;-79
2023/03/25 23:49:31;;;;;;;12.63;7.28;;;;;;;1.35;93.08;99157.94;10451645;28;20046;-79
2023/03/25 23:54:33;;;;;;;12.38;6.97;;;;;;;1.29;93.21;99153.59;10443820;28;20504;-79
2023/03/25 23:59:36;;;;;;;12.68;6.60;;;;;;;1.31;93.31;99146.84;10442981;28;20057;-79
